Time;durP1;ratioP1;P1;durP2;ratioP2;P2;SDS_P1;SDS_P2;PMS_P1;PMS_P2;Temp;Humidity;BMP_temperature;BMP_pressure;BME280_temperature;BME280_humidity;BME280_pressure;Samples;Min_cycle;Max_cycle;Signal;HPM_P1;HPM_P2
2022/09/22 00:01:24;;;;;;;3.37;3.00;;;5.80;99.90;;;;;;5022042;28;20545;-59
2022/09/22 00:03:56;;;;;;;4.50;2.80;;;5.80;99.90;;;;;;5028436;28;20247;-54
2022/09/22 00:06:50;;;;;;;4.17;3.50;;;5.80;99.90;;;;;;5029059;28;20493;-55
2022/09/22 00:09:19;;;;;;;6.63;3.17;;;5.80;99.90;;;;;;5018001;28;20439;-55
2022/09/22 00:11:48;;;;;;;4.83;3.20;;;5.70;99.90;;;;;;5024690;28;20995;-58
2022/09/22 00:14:20;;;;;;;6.07;3.40;;;5.70;99.90;;;;;;5022310;28;20438;-60
2022/09/22 00:16:57;;;;;;;4.33;3.43;;;5.70;99.90;;;;;;5026721;28;20427;-56
2022/09/22 00:19:24;;;;;;;7.13;3.60;;;5.70;99.90;;;;;;5023476;28;20483;-54
2022/09/22 00:21:50;;;;;;;3.60;3.27;;;5.70;99.90;;;;;;5027409;28;21033;-55
2022/09/22 00:24:17;;;;;;;4.53;3.47;;;5.70;99.90;;;;;;5023294;28;20438;-56
2022/09/22 00:26:44;;;;;;;4.80;3.53;;;5.70;99.90;;;;;;5023474;28;20454;-57
2022/09/22 00:29:10;;;;;;;5.10;3.30;;;5.70;99.90;;;;;;5023070;28;20477;-57
2022/09/22 00:31:38;;;;;;;3.30;3.00;;;5.70;99.90;;;;;;5027428;28;20462;-57
2022/09/22 00:34:04;;;;;;;4.00;3.00;;;5.60;99.90;;;;;;5023330;28;20438;-55
2022/09/22 00:36:30;;;;;;;3.13;2.80;;;5.60;99.90;;;;;;5029223;28;20471;-57
2022/09/22 00:38:57;;;;;;;3.63;3.27;;;5.60;99.90;;;;;;5021746;28;20853;-54
2022/09/22 00:41:44;;;;;;;4.37;3.00;;;5.60;99.90;;;;;;5016840;28;20259;-57
2022/09/22 00:44:31;;;;;;;4.33;3.60;;;5.60;99.90;;;;;;5023561;28;20426;-57
2022/09/22 00:47:25;;;;;;;4.83;3.17;;;5.60;99.90;;;;;;5020781;28;20431;-56
2022/09/22 00:50:17;;;;;;;5.03;3.40;;;5.60;99.90;;;;;;5024865;28;20427;-54
2022/09/22 00:52:53;;;;;;;5.07;3.63;;;5.60;99.90;;;;;;5026315;28;20467;-54
2022/09/22 00:55:33;;;;;;;4.67;3.67;;;5.70;99.90;;;;;;5022698;28;20533;-55
2022/09/22 00:58:01;;;;;;;6.30;4.30;;;5.70;99.90;;;;;;5022603;28;20526;-55
2022/09/22 01:00:27;;;;;;;3.90;3.27;;;5.70;99.90;;;;;;5026317;28;20435;-56
2022/09/22 01:02:57;;;;;;;6.83;3.30;;;5.70;99.90;;;;;;5023897;28;20460;-54
2022/09/22 01:05:26;;;;;;;5.00;3.37;;;5.70;99.90;;;;;;5024162;28;20191;-55
2022/09/22 01:07:53;;;;;;;8.07;3.87;;;5.70;99.90;;;;;;5027586;28;20430;-55
2022/09/22 01:10:19;;;;;;;6.53;3.00;;;5.70;99.90;;;;;;5022167;28;20431;-55
2022/09/22 01:13:11;;;;;;;3.47;3.10;;;5.70;99.90;;;;;;5025444;28;20515;-58
2022/09/22 01:15:50;;;;;;;4.10;3.23;;;5.70;99.90;;;;;;5023173;28;20427;-55
2022/09/22 01:18:19;;;;;;;4.43;3.77;;;5.70;99.90;;;;;;5021991;28;20430;-56
2022/09/22 01:21:23;;;;;;;3.97;3.17;;;5.70;99.90;;;;;;5022366;28;20538;-55
2022/09/22 01:23:48;;;;;;;4.57;3.00;;;5.70;99.90;;;;;;5029729;28;20403;-55
2022/09/22 01:26:35;;;;;;;3.80;2.97;;;5.60;99.90;;;;;;5029703;28;20945;-54
2022/09/22 01:29:18;;;;;;;3.10;2.90;;;5.60;99.90;;;;;;5024358;28;20172;-54
2022/09/22 01:31:49;;;;;;;3.50;3.20;;;5.50;99.90;;;;;;5029301;28;20450;-59
2022/09/22 01:34:25;;;;;;;3.80;3.07;;;5.40;99.90;;;;;;5028219;28;20752;-56
2022/09/22 01:37:08;;;;;;;5.70;3.10;;;5.30;99.90;;;;;;5007493;28;20434;-55
2022/09/22 01:39:40;;;;;;;4.37;3.23;;;5.30;99.90;;;;;;5028625;28;20941;-55
2022/09/22 01:42:12;;;;;;;6.33;3.20;;;5.30;99.90;;;;;;5028011;28;20473;-55
2022/09/22 01:44:48;;;;;;;5.73;3.30;;;5.20;99.90;;;;;;5025034;28;20452;-55
2022/09/22 01:47:27;;;;;;;8.93;3.10;;;5.20;99.90;;;;;;5005813;28;20434;-54
2022/09/22 01:50:01;;;;;;;4.33;3.27;;;5.20;99.90;;;;;;5026608;28;20545;-54
2022/09/22 01:52:30;;;;;;;5.90;3.40;;;5.20;99.90;;;;;;5020827;28;20454;-57
2022/09/22 01:55:12;;;;;;;4.87;3.40;;;5.20;99.90;;;;;;5022916;28;20438;-55
2022/09/22 01:57:40;;;;;;;5.07;3.60;;;5.20;99.90;;;;;;5018941;28;20435;-55
2022/09/22 02:00:08;;;;;;;4.40;3.40;;;5.10;99.90;;;;;;5025520;28;20432;-56
2022/09/22 02:02:39;;;;;;;4.43;3.33;;;5.10;99.90;;;;;;5033910;28;20489;-57
2022/09/22 02:05:10;;;;;;;4.87;3.83;;;5.10;99.90;;;;;;5032141;28;20442;-56
2022/09/22 02:07:41;;;;;;;5.73;4.00;;;5.10;99.90;;;;;;5030075;28;20430;-58
2022/09/22 02:10:11;;;;;;;5.00;3.70;;;5.00;99.90;;;;;;5008842;28;20438;-54
2022/09/22 02:12:37;;;;;;;5.97;3.50;;;5.00;99.90;;;;;;5015013;28;20461;-56
2022/09/22 02:15:58;;;;;;;3.97;3.43;;;5.00;99.90;;;;;;5031648;28;20565;-55
2022/09/22 02:18:00;;;;;;;8.80;4.43;;;4.90;99.90;;;;;;5031199;28;20449;-55
2022/09/22 02:20:26;;;;;;;6.50;4.60;;;4.90;99.90;;;;;;5024767;28;20456;-56
2022/09/22 02:22:53;;;;;;;5.33;3.80;;;4.90;99.90;;;;;;5021188;28;20426;-56
2022/09/22 02:25:22;;;;;;;4.80;4.03;;;4.90;99.90;;;;;;5026541;28;20927;-56
2022/09/22 02:27:49;;;;;;;5.83;4.03;;;4.80;99.90;;;;;;5024296;28;20954;-55
2022/09/22 02:30:14;;;;;;;4.63;3.90;;;4.80;99.90;;;;;;5032107;28;20434;-55
2022/09/22 02:32:46;;;;;;;4.10;3.30;;;4.80;99.90;;;;;;5028545;28;20457;-55
2022/09/22 02:35:13;;;;;;;8.60;3.80;;;4.70;99.90;;;;;;5026869;28;20698;-57
2022/09/22 02:37:48;;;;;;;5.97;3.50;;;4.70;99.90;;;;;;5029998;28;20426;-57
2022/09/22 02:40:38;;;;;;;4.43;4.03;;;4.70;99.90;;;;;;5028849;28;20430;-55
2022/09/22 02:43:15;;;;;;;6.80;3.77;;;4.80;99.90;;;;;;5024758;28;20446;-56
2022/09/22 02:46:01;;;;;;;4.33;3.60;;;4.70;99.90;;;;;;5031064;28;20433;-57
2022/09/22 02:48:35;;;;;;;4.93;3.40;;;4.70;99.90;;;;;;5025506;28;21091;-54
2022/09/22 02:51:01;;;;;;;6.07;4.07;;;4.70;99.90;;;;;;5008442;28;20460;-55
2022/09/22 02:53:27;;;;;;;4.80;3.90;;;4.70;99.90;;;;;;5028336;28;20462;-56
2022/09/22 02:55:53;;;;;;;5.70;3.63;;;4.70;99.90;;;;;;5022218;28;20799;-53
2022/09/22 02:58:18;;;;;;;7.10;4.80;;;4.70;99.90;;;;;;5024486;28;20203;-56
2022/09/22 03:00:44;;;;;;;6.63;3.90;;;4.70;99.90;;;;;;5023644;28;20290;-56
2022/09/22 03:03:10;;;;;;;4.37;3.80;;;4.70;99.90;;;;;;5025120;28;20195;-56
2022/09/22 03:05:39;;;;;;;4.13;3.60;;;4.80;99.90;;;;;;5023795;28;20460;-56
2022/09/22 03:08:05;;;;;;;6.53;3.90;;;4.80;99.90;;;;;;5033665;28;20816;-55
2022/09/22 03:10:31;;;;;;;9.10;3.80;;;4.80;99.90;;;;;;5031171;28;20439;-55
2022/09/22 03:12:57;;;;;;;5.80;3.50;;;4.80;99.90;;;;;;5026378;28;20469;-55
2022/09/22 03:15:23;;;;;;;6.37;3.70;;;4.70;99.90;;;;;;5023061;28;20813;-56
2022/09/22 03:17:49;;;;;;;4.87;3.47;;;4.70;99.90;;;;;;5026816;28;20235;-56
2022/09/22 03:20:15;;;;;;;4.30;3.80;;;4.60;99.90;;;;;;5020201;28;20438;-58
2022/09/22 03:22:41;;;;;;;9.50;3.47;;;4.60;99.90;;;;;;5028819;28;20179;-55
2022/09/22 03:25:09;;;;;;;7.57;4.10;;;4.50;99.90;;;;;;5023330;28;20629;-57
2022/09/22 03:27:35;;;;;;;6.63;4.63;;;4.50;99.90;;;;;;5020854;28;20434;-58
2022/09/22 03:30:03;;;;;;;3.80;3.40;;;4.50;99.90;;;;;;5022839;28;20449;-56
2022/09/22 03:32:29;;;;;;;5.70;3.97;;;4.40;99.90;;;;;;5028936;28;20466;-58
2022/09/22 03:34:55;;;;;;;9.60;4.10;;;4.40;99.90;;;;;;5027702;28;21045;-55
2022/09/22 03:37:21;;;;;;;5.03;3.77;;;4.40;99.90;;;;;;5025531;28;20489;-57
2022/09/22 03:39:47;;;;;;;6.80;4.00;;;4.40;99.90;;;;;;5018558;28;20504;-55
2022/09/22 03:42:12;;;;;;;7.43;3.30;;;4.40;99.90;;;;;;5026104;28;20230;-56
2022/09/22 03:44:38;;;;;;;4.37;3.47;;;4.40;99.90;;;;;;5025548;28;20649;-56
2022/09/22 03:47:04;;;;;;;4.80;3.40;;;4.40;99.90;;;;;;5027635;28;20183;-59
2022/09/22 03:49:30;;;;;;;4.50;3.50;;;4.40;99.90;;;;;;5031746;28;20662;-57
2022/09/22 03:51:56;;;;;;;6.63;4.00;;;4.40;99.90;;;;;;5035490;22;20310;-61
2022/09/22 03:54:22;;;;;;;5.47;3.80;;;4.40;99.90;;;;;;5036858;28;20525;-64
2022/09/22 03:56:47;;;;;;;5.20;3.80;;;4.50;99.90;;;;;;5034036;28;20507;-64
2022/09/22 03:59:13;;;;;;;4.07;3.60;;;4.50;99.90;;;;;;5044398;28;20179;-64
2022/09/22 04:01:39;;;;;;;3.83;3.43;;;4.50;99.90;;;;;;5042133;28;20185;-65
2022/09/22 04:04:05;;;;;;;4.50;3.80;;;4.40;99.90;;;;;;5034981;28;20445;-60
2022/09/22 04:06:31;;;;;;;8.70;4.00;;;4.40;99.90;;;;;;5015710;28;20168;-60
2022/09/22 04:08:57;;;;;;;7.83;3.60;;;4.40;99.90;;;;;;5034071;28;20179;-59
2022/09/22 04:11:23;;;;;;;9.43;3.63;;;4.40;99.90;;;;;;5018784;28;20499;-62
2022/09/22 04:13:49;;;;;;;5.00;3.73;;;4.30;99.90;;;;;;5017953;28;20282;-62
2022/09/22 04:16:15;;;;;;;5.03;3.70;;;4.30;99.90;;;;;;5032436;28;20919;-62
2022/09/22 04:18:41;;;;;;;5.87;4.30;;;4.30;99.90;;;;;;5043808;28;20575;-61
2022/09/22 04:21:07;;;;;;;10.30;3.97;;;4.30;99.90;;;;;;5040114;28;20175;-59
2022/09/22 04:23:33;;;;;;;6.70;4.43;;;4.30;99.90;;;;;;5043123;28;20257;-59
2022/09/22 04:26:00;;;;;;;9.30;4.43;;;4.20;99.90;;;;;;5017482;28;20494;-60
2022/09/22 04:28:26;;;;;;;6.90;4.83;;;4.20;99.90;;;;;;5032476;28;20434;-61
2022/09/22 04:30:51;;;;;;;7.43;5.63;;;4.20;99.90;;;;;;5040790;28;20448;-61
2022/09/22 04:33:17;;;;;;;5.90;4.27;;;4.20;99.90;;;;;;5036901;28;20256;-60
2022/09/22 04:35:43;;;;;;;8.07;4.70;;;4.20;99.90;;;;;;5036467;28;20228;-61
2022/09/22 04:38:09;;;;;;;9.90;4.20;;;4.20;99.90;;;;;;5040237;28;20188;-61
2022/09/22 04:40:35;;;;;;;8.23;4.63;;;4.10;99.90;;;;;;5036274;28;20182;-58
2022/09/22 04:43:01;;;;;;;7.10;5.00;;;4.10;99.90;;;;;;5038221;28;20441;-60
2022/09/22 04:45:26;;;;;;;6.57;4.63;;;4.10;99.90;;;;;;5040537;28;21022;-60
2022/09/22 04:47:52;;;;;;;8.53;5.43;;;4.10;99.90;;;;;;5051096;28;20658;-61
2022/09/22 04:50:20;;;;;;;7.07;4.37;;;4.10;99.90;;;;;;5041616;28;20191;-60
2022/09/22 04:52:52;;;;;;;4.20;3.80;;;4.10;99.90;;;;;;5045708;28;20289;-60
2022/09/22 04:55:19;;;;;;;6.23;4.63;;;4.00;99.90;;;;;;5042074;28;20444;-60
2022/09/22 04:57:48;;;;;;;6.90;4.70;;;4.00;99.90;;;;;;5047087;28;20445;-60
2022/09/22 05:00:15;;;;;;;7.80;5.20;;;4.00;99.90;;;;;;5050521;28;20394;-60
2022/09/22 05:02:40;;;;;;;8.07;4.67;;;4.00;99.90;;;;;;5050827;28;20424;-60
2022/09/22 05:05:07;;;;;;;6.90;4.70;;;4.00;99.90;;;;;;5047575;28;20418;-60
2022/09/22 05:07:33;;;;;;;7.87;5.20;;;4.00;99.90;;;;;;5033966;28;20656;-60
2022/09/22 05:09:58;;;;;;;9.10;5.63;;;3.90;99.90;;;;;;5034580;28;20406;-60
2022/09/22 05:12:25;;;;;;;8.10;4.53;;;3.90;99.90;;;;;;5039130;28;20472;-61
2022/09/22 05:14:51;;;;;;;10.90;5.13;;;3.90;99.90;;;;;;5049323;28;20236;-59
2022/09/22 05:17:17;;;;;;;9.43;5.40;;;3.90;99.90;;;;;;5050419;28;20850;-60
2022/09/22 05:19:44;;;;;;;6.63;4.40;;;3.90;99.90;;;;;;5048969;28;20254;-60
2022/09/22 05:22:09;;;;;;;7.50;4.50;;;3.90;99.90;;;;;;5049337;28;20278;-60
2022/09/22 05:24:35;;;;;;;5.83;4.17;;;3.90;99.90;;;;;;5049153;28;20535;-60
2022/09/22 05:27:00;;;;;;;4.30;3.90;;;3.90;99.90;;;;;;5049847;28;20186;-60
2022/09/22 05:29:26;;;;;;;12.20;4.73;;;3.90;99.90;;;;;;5050015;28;20178;-60
2022/09/22 05:31:52;;;;;;;6.90;3.97;;;3.90;99.90;;;;;;5048912;28;20191;-61
2022/09/22 05:34:18;;;;;;;9.70;4.07;;;3.90;99.90;;;;;;5049794;28;20187;-60
2022/09/22 05:36:43;;;;;;;4.10;3.70;;;3.90;99.90;;;;;;5049589;28;20822;-60
2022/09/22 05:39:09;;;;;;;5.67;3.63;;;3.90;99.90;;;;;;5049431;28;20637;-60
2022/09/22 05:41:34;;;;;;;5.87;3.53;;;3.90;99.90;;;;;;5041986;28;20707;-60
2022/09/22 05:44:00;;;;;;;4.37;3.27;;;3.90;99.90;;;;;;5029572;28;20226;-60
2022/09/22 05:46:26;;;;;;;11.33;4.37;;;3.90;99.90;;;;;;5030515;28;20171;-61
2022/09/22 05:48:52;;;;;;;8.77;4.10;;;3.90;99.90;;;;;;5035299;28;20425;-60
2022/09/22 05:51:17;;;;;;;5.50;3.80;;;3.90;99.90;;;;;;5045178;28;20190;-59
2022/09/22 05:53:43;;;;;;;7.37;4.30;;;3.90;99.90;;;;;;5047301;28;20725;-60
2022/09/22 05:56:09;;;;;;;4.80;4.10;;;3.90;99.90;;;;;;5046897;28;20164;-60
2022/09/22 05:58:34;;;;;;;7.47;4.03;;;3.90;99.90;;;;;;5051225;28;20175;-60
2022/09/22 06:01:00;;;;;;;7.10;5.10;;;3.90;99.90;;;;;;5049700;28;20205;-60
2022/09/22 06:03:26;;;;;;;8.73;6.33;;;3.90;99.90;;;;;;5048530;28;20262;-60
2022/09/22 06:05:51;;;;;;;10.23;6.53;;;4.00;99.90;;;;;;5048699;28;20265;-60
2022/09/22 06:08:17;;;;;;;6.90;5.30;;;4.00;99.90;;;;;;5019401;28;20180;-60
2022/09/22 06:10:44;;;;;;;10.03;5.43;;;4.10;99.90;;;;;;5026173;28;20176;-60
2022/09/22 06:13:10;;;;;;;4.90;4.40;;;4.20;99.90;;;;;;5032052;28;20709;-61
2022/09/22 06:15:37;;;;;;;7.27;5.17;;;4.30;99.90;;;;;;5021370;28;20785;-60
2022/09/22 06:18:08;;;;;;;8.53;5.97;;;4.40;99.90;;;;;;5049094;28;20425;-60
2022/09/22 06:20:34;;;;;;;8.23;5.40;;;4.40;99.90;;;;;;5049172;28;20429;-59
2022/09/22 06:23:00;;;;;;;5.40;4.30;;;4.50;99.90;;;;;;5048829;28;20814;-60
2022/09/22 06:25:29;;;;;;;6.53;4.73;;;4.60;99.90;;;;;;5049337;28;20490;-60
2022/09/22 06:28:05;;;;;;;9.60;4.80;;;4.70;99.90;;;;;;5049060;28;20202;-60
2022/09/22 06:30:35;;;;;;;5.70;4.43;;;4.80;99.90;;;;;;5042936;28;20465;-60
2022/09/22 06:33:01;;;;;;;4.00;3.60;;;4.90;99.90;;;;;;5049395;28;20548;-60
2022/09/22 06:35:34;;;;;;;5.23;3.90;;;5.00;99.90;;;;;;5048456;28;20509;-60
2022/09/22 06:37:59;;;;;;;4.27;3.60;;;5.10;99.90;;;;;;5049301;28;20432;-59
2022/09/22 06:40:26;;;;;;;7.40;4.00;;;5.10;99.90;;;;;;5030537;28;20422;-60
2022/09/22 06:42:56;;;;;;;4.47;3.70;;;5.20;99.90;;;;;;5035986;28;20624;-60
2022/09/22 06:45:24;;;;;;;8.70;3.40;;;5.30;99.90;;;;;;5027627;28;20434;-60
2022/09/22 06:47:50;;;;;;;4.53;4.13;;;5.40;99.90;;;;;;5035862;28;20418;-60
2022/09/22 06:50:16;;;;;;;5.33;3.70;;;5.50;99.90;;;;;;5052328;28;20940;-60
2022/09/22 06:52:42;;;;;;;7.87;3.73;;;5.60;99.90;;;;;;5052740;28;20468;-61
2022/09/22 06:55:09;;;;;;;5.40;4.10;;;5.60;99.90;;;;;;5050915;28;20171;-60
2022/09/22 06:57:35;;;;;;;5.00;4.13;;;5.70;99.90;;;;;;5053868;28;20524;-60
2022/09/22 07:00:02;;;;;;;5.47;4.10;;;5.80;99.90;;;;;;5053420;28;20938;-60
2022/09/22 07:02:29;;;;;;;410.07;147.33;;;5.90;99.90;;;;;;5040029;28;20520;-60
2022/09/22 07:04:58;;;;;;;587.73;225.53;;;6.00;99.90;;;;;;5047113;28;20513;-60
2022/09/22 07:07:31;;;;;;;295.27;87.23;;;6.10;99.90;;;;;;5049342;28;20472;-60
2022/09/22 07:09:57;;;;;;;74.77;26.80;;;6.20;99.90;;;;;;5032768;28;20402;-60
2022/09/22 07:12:24;;;;;;;47.20;18.10;;;6.30;99.90;;;;;;5045593;28;20494;-60
2022/09/22 07:14:51;;;;;;;23.87;9.00;;;6.40;99.90;;;;;;5052109;28;20799;-60
2022/09/22 07:17:20;;;;;;;13.93;6.13;;;6.50;99.90;;;;;;5052778;28;20409;-60
2022/09/22 07:19:46;;;;;;;9.60;5.10;;;6.60;99.90;;;;;;5048178;28;20429;-60
2022/09/22 07:22:17;;;;;;;8.60;5.30;;;6.80;99.90;;;;;;5052162;28;20449;-61
2022/09/22 07:24:43;;;;;;;12.50;6.10;;;6.90;99.90;;;;;;5033297;28;20459;-60
2022/09/22 07:27:11;;;;;;;5.47;4.33;;;7.00;99.90;;;;;;5042130;28;20421;-60
2022/09/22 07:29:37;;;;;;;5.90;4.70;;;7.10;99.90;;;;;;5051416;28;20564;-60
2022/09/22 07:32:03;;;;;;;7.73;4.30;;;7.20;99.90;;;;;;5052039;28;20448;-61
2022/09/22 07:34:29;;;;;;;6.33;4.50;;;7.40;99.90;;;;;;5050782;28;20551;-60
2022/09/22 07:36:55;;;;;;;5.23;4.33;;;7.50;99.90;;;;;;5052271;28;20817;-60
2022/09/22 07:39:23;;;;;;;6.30;4.17;;;7.70;99.90;;;;;;5052249;28;20804;-60
2022/09/22 07:41:49;;;;;;;6.03;4.10;;;7.80;99.90;;;;;;5031047;28;20659;-60
2022/09/22 07:47:00;;;;;;;4.57;3.30;;;8.10;98.70;;;;;;5051777;28;20256;-60
2022/09/22 07:49:26;;;;;;;7.73;3.50;;;8.20;97.70;;;;;;5051059;28;20422;-60
2022/09/22 07:51:56;;;;;;;5.47;3.60;;;8.40;97.10;;;;;;5047989;28;20456;-60
2022/09/22 07:54:22;;;;;;;4.03;3.50;;;8.50;95.90;;;;;;5051800;28;20675;-60
2022/09/22 07:56:50;;;;;;;7.80;3.73;;;8.60;95.00;;;;;;5052819;28;20429;-60
2022/09/22 07:59:16;;;;;;;5.40;3.73;;;8.80;94.30;;;;;;5049179;28;20444;-60
2022/09/22 08:01:46;;;;;;;3.60;3.10;;;8.90;93.20;;;;;;5032295;28;20497;-60
2022/09/22 08:04:17;;;;;;;5.93;3.00;;;9.00;91.50;;;;;;5039249;28;20432;-61
2022/09/22 08:06:44;;;;;;;2.83;2.37;;;9.10;90.50;;;;;;5039301;28;20434;-60
2022/09/22 08:09:11;;;;;;;3.10;2.73;;;9.30;89.60;;;;;;5033195;28;20920;-60
2022/09/22 08:11:37;;;;;;;3.30;2.53;;;9.40;88.00;;;;;;5049330;28;20433;-60
2022/09/22 08:14:06;;;;;;;3.23;2.27;;;9.50;85.30;;;;;;5050352;28;20442;-61
2022/09/22 08:16:35;;;;;;;3.60;2.50;;;9.60;84.90;;;;;;5036272;28;20785;-60
2022/09/22 08:19:09;;;;;;;3.00;2.70;;;9.70;83.60;;;;;;5038775;28;20422;-61
2022/09/22 08:21:35;;;;;;;3.90;3.30;;;9.80;81.70;;;;;;5050171;28;20429;-60
2022/09/22 08:24:02;;;;;;;2.83;2.40;;;9.90;80.10;;;;;;5029047;28;20433;-60
2022/09/22 08:26:28;;;;;;;2.43;2.20;;;10.00;78.10;;;;;;5031975;28;20411;-60
2022/09/22 08:28:55;;;;;;;2.57;2.37;;;10.10;76.40;;;;;;5047137;28;20468;-60
2022/09/22 08:31:22;;;;;;;4.60;2.50;;;10.20;76.10;;;;;;5049770;28;20264;-60
2022/09/22 08:33:50;;;;;;;3.43;2.93;;;10.30;76.10;;;;;;5032499;28;20465;-61
2022/09/22 08:36:17;;;;;;;5.17;2.50;;;10.40;76.70;;;;;;5051312;28;20418;-60
2022/09/22 08:38:46;;;;;;;4.33;2.43;;;10.60;74.10;;;;;;5050709;28;20428;-60
2022/09/22 08:41:21;;;;;;;3.80;2.10;;;10.60;73.00;;;;;;5049947;28;20409;-60
2022/09/22 08:43:51;;;;;;;7.67;2.33;;;10.70;71.60;;;;;;5032550;28;20448;-60
2022/09/22 08:46:17;;;;;;;4.00;2.40;;;10.90;71.30;;;;;;5050059;28;20970;-60
2022/09/22 08:51:52;;;;;;;3.90;2.10;;;11.10;70.70;;;;;;5050047;28;20397;-62
2022/09/22 08:54:25;;;;;;;2.50;1.83;;;11.30;71.20;;;;;;5040464;28;20436;-60
2022/09/22 08:57:00;;;;;;;2.93;2.00;;;11.40;69.70;;;;;;5048533;28;20474;-60
2022/09/22 09:00:06;;;;;;;4.23;1.70;;;11.50;69.00;;;;;;5046651;28;20503;-60
2022/09/22 09:02:54;;;;;;;2.70;1.90;;;11.70;68.00;;;;;;4968427;28;20447;-60
2022/09/22 09:05:41;;;;;;;3.10;1.90;;;11.90;67.50;;;;;;5044553;28;20429;-60
2022/09/22 09:08:30;;;;;;;3.20;2.00;;;12.00;67.20;;;;;;5030629;28;21015;-60
2022/09/22 09:11:20;;;;;;;2.47;1.80;;;12.20;67.40;;;;;;5030277;28;20819;-60
2022/09/22 09:14:03;;;;;;;2.50;2.17;;;12.30;66.30;;;;;;5044924;28;20508;-60
2022/09/22 09:16:28;;;;;;;2.90;2.20;;;12.50;65.00;;;;;;5032409;28;20399;-60
2022/09/22 09:19:03;;;;;;;3.50;1.83;;;12.60;65.50;;;;;;5030862;28;20927;-61
2022/09/22 09:21:33;;;;;;;3.33;2.30;;;12.80;65.60;;;;;;5045910;28;20175;-60
2022/09/22 09:24:03;;;;;;;2.83;1.83;;;12.90;64.80;;;;;;5050637;28;20448;-60
2022/09/22 09:26:31;;;;;;;2.33;2.13;;;13.10;65.00;;;;;;5050785;28;20398;-61
2022/09/22 09:29:00;;;;;;;2.10;2.00;;;13.20;63.80;;;;;;5041310;28;20425;-60
2022/09/22 09:31:31;;;;;;;8.47;2.33;;;13.40;63.90;;;;;;5050080;28;20417;-60
2022/09/22 09:34:04;;;;;;;1.73;1.63;;;13.50;63.50;;;;;;5048798;28;20933;-60
2022/09/22 09:36:36;;;;;;;3.40;1.83;;;13.60;62.30;;;;;;5049136;28;20425;-61
2022/09/22 09:39:13;;;;;;;2.13;1.90;;;13.80;61.90;;;;;;5049141;28;20499;-60
2022/09/22 09:41:40;;;;;;;2.00;1.80;;;13.90;60.70;;;;;;5049949;28;20480;-61
2022/09/22 09:44:11;;;;;;;3.13;1.73;;;13.90;59.00;;;;;;5025278;28;20528;-62
2022/09/22 09:47:17;;;;;;;2.90;1.93;;;14.00;58.20;;;;;;5049854;28;20421;-61
2022/09/22 09:49:42;;;;;;;2.80;1.70;;;14.10;58.50;;;;;;4929660;29;21182;-61
2022/09/22 09:52:13;;;;;;;2.17;1.97;;;14.20;58.40;;;;;;5012259;28;20632;-61
2022/09/22 09:54:42;;;;;;;2.10;1.60;;;14.30;59.00;;;;;;5036920;28;20172;-60
2022/09/22 09:57:16;;;;;;;2.97;1.80;;;14.50;58.60;;;;;;5048025;28;20508;-61
2022/09/22 10:02:47;;;;;;;2.97;2.03;;;14.70;57.80;;;;;;5050335;28;20528;-61
2022/09/22 10:05:25;;;;;;;1.80;1.70;;;14.80;57.70;;;;;;5052249;28;20460;-62
2022/09/22 10:07:59;;;;;;;3.47;1.70;;;14.90;57.80;;;;;;5069063;23;20490;-59
2022/09/22 10:10:28;;;;;;;3.00;1.90;;;15.00;57.50;;;;;;5044300;28;20775;-59
2022/09/22 10:13:22;;;;;;;2.30;2.03;;;15.10;56.70;;;;;;5045329;28;20468;-59
2022/09/22 10:16:01;;;;;;;2.00;1.53;;;15.20;55.50;;;;;;5037815;28;20790;-57
2022/09/22 10:18:33;;;;;;;2.50;1.87;;;15.30;54.60;;;;;;5027911;28;21680;-58
2022/09/22 10:21:15;;;;;;;2.40;1.63;;;15.30;54.70;;;;;;5025978;28;20437;-59
2022/09/22 10:23:52;;;;;;;3.67;1.80;;;15.40;53.50;;;;;;5026948;28;20438;-57
2022/09/22 10:26:19;;;;;;;2.50;1.67;;;15.40;53.80;;;;;;5029924;28;20418;-59
2022/09/22 10:29:04;;;;;;;3.07;1.90;;;15.50;54.80;;;;;;5034129;28;20484;-60
2022/09/22 10:31:31;;;;;;;3.57;1.63;;;15.50;53.00;;;;;;5029340;28;20449;-61
2022/09/22 10:33:58;;;;;;;2.60;1.63;;;15.60;53.70;;;;;;5020185;28;20514;-60
2022/09/22 10:36:26;;;;;;;1.83;1.70;;;15.70;54.00;;;;;;5028881;28;20429;-61
2022/09/22 10:38:53;;;;;;;2.67;2.10;;;15.80;54.30;;;;;;5031866;28;20445;-60
2022/09/22 10:41:27;;;;;;;7.77;1.80;;;15.90;54.30;;;;;;5032146;28;20441;-61
2022/09/22 10:43:58;;;;;;;2.03;1.80;;;16.10;54.20;;;;;;5034667;28;20428;-62
2022/09/22 10:46:49;;;;;;;3.70;1.73;;;16.20;54.80;;;;;;5026094;28;20438;-59
2022/09/22 10:49:39;;;;;;;1.90;1.67;;;16.30;54.30;;;;;;5031044;28;20509;-60
2022/09/22 10:52:10;;;;;;;6.87;1.73;;;16.40;54.10;;;;;;5023683;28;20454;-60
2022/09/22 10:55:06;;;;;;;2.93;1.93;;;16.60;53.60;;;;;;5000793;28;20492;-60
2022/09/22 10:57:53;;;;;;;2.50;1.80;;;16.60;53.10;;;;;;5030896;28;20843;-61
2022/09/22 11:00:21;;;;;;;2.10;1.33;;;16.70;53.00;;;;;;5031901;28;20432;-60
2022/09/22 11:03:05;;;;;;;1.90;1.77;;;16.90;52.20;;;;;;5023976;28;20430;-60
2022/09/22 11:12:18;;;;;;;3.10;1.67;;;17.30;52.00;;;;;;5027763;28;20469;-63
2022/09/22 11:14:55;;;;;;;6.30;1.80;;;17.40;51.10;;;;;;5015494;28;20459;-59
2022/09/22 11:17:45;;;;;;;2.13;1.37;;;17.50;50.60;;;;;;5023582;28;20979;-55
2022/09/22 11:20:26;;;;;;;3.20;1.50;;;17.60;49.70;;;;;;5030141;28;20452;-57
2022/09/22 11:23:15;;;;;;;3.17;1.70;;;17.70;50.00;;;;;;5024885;28;20947;-55
2022/09/22 11:26:18;;;;;;;2.07;1.67;;;17.90;49.80;;;;;;5000379;28;20446;-56
2022/09/22 11:29:10;;;;;;;1.90;1.70;;;18.00;49.10;;;;;;5037033;28;20441;-56
2022/09/22 11:31:52;;;;;;;5.63;1.60;;;18.30;50.20;;;;;;5030596;28;20418;-61
2022/09/22 11:34:45;;;;;;;2.97;1.77;;;18.60;49.80;;;;;;5027385;28;20953;-61
2022/09/22 11:37:26;;;;;;;1.57;1.47;;;18.80;49.20;;;;;;5031821;28;20415;-61
2022/09/22 11:40:34;;;;;;;2.63;1.50;;;19.00;48.30;;;;;;5032318;28;20403;-60
2022/09/22 11:43:21;;;;;;;2.87;1.80;;;19.20;48.10;;;;;;4995240;28;20468;-61
2022/09/22 11:46:17;;;;;;;4.83;1.40;;;19.40;48.70;;;;;;5028274;28;20430;-62
2022/09/22 11:49:19;;;;;;;3.30;1.70;;;19.60;46.90;;;;;;5030329;28;20431;-60
2022/09/22 11:52:05;;;;;;;2.70;1.50;;;19.70;46.70;;;;;;5035413;28;20437;-57
2022/09/22 11:54:52;;;;;;;3.13;1.50;;;19.80;45.40;;;;;;4984299;28;20479;-56
2022/09/22 11:57:22;;;;;;;2.20;1.50;;;20.00;45.50;;;;;;5040395;28;20982;-59
2022/09/22 12:00:17;;;;;;;4.47;2.00;;;20.10;45.30;;;;;;5040627;28;20481;-56
2022/09/22 12:02:58;;;;;;;3.00;1.43;;;20.10;45.10;;;;;;5011189;28;20470;-55
2022/09/22 12:05:37;;;;;;;3.43;1.53;;;20.20;45.20;;;;;;5028070;28;20478;-57
2022/09/22 12:08:16;;;;;;;2.40;1.50;;;20.20;42.80;;;;;;5026856;28;20465;-55
2022/09/22 12:10:46;;;;;;;1.93;1.50;;;20.10;43.60;;;;;;5026932;28;20426;-55
2022/09/22 12:13:25;;;;;;;2.13;1.60;;;20.30;44.50;;;;;;5024133;28;20450;-55
2022/09/22 12:16:17;;;;;;;3.33;1.70;;;20.40;45.00;;;;;;5026152;28;20430;-55
2022/09/22 12:18:42;;;;;;;7.70;1.90;;;20.50;45.70;;;;;;5027295;28;20466;-55
2022/09/22 12:21:45;;;;;;;1.80;1.70;;;20.60;45.60;;;;;;5025724;28;20447;-55
2022/09/22 12:24:11;;;;;;;2.50;1.63;;;20.80;45.20;;;;;;5012382;28;20264;-55
2022/09/22 12:26:43;;;;;;;2.53;1.70;;;20.90;44.70;;;;;;5030002;28;20549;-56
2022/09/22 12:29:17;;;;;;;1.90;1.50;;;21.00;44.90;;;;;;5024616;28;20431;-55
2022/09/22 12:31:48;;;;;;;1.70;1.60;;;21.10;44.10;;;;;;5028059;28;20442;-52
2022/09/22 12:34:17;;;;;;;2.93;1.87;;;21.20;43.80;;;;;;5023647;28;20453;-52
2022/09/22 12:36:43;;;;;;;3.70;2.60;;;21.20;43.60;;;;;;5033644;28;20457;-52
2022/09/22 12:39:19;;;;;;;2.83;1.60;;;21.20;42.40;;;;;;5025788;28;20443;-53
2022/09/22 12:42:00;;;;;;;2.00;1.77;;;21.20;43.80;;;;;;5028826;28;20428;-59
2022/09/22 12:44:41;;;;;;;2.23;2.10;;;21.30;44.20;;;;;;5017573;28;20489;-56
2022/09/22 12:47:33;;;;;;;3.03;2.03;;;21.30;42.80;;;;;;5028310;28;20568;-56
2022/09/22 12:50:05;;;;;;;3.87;1.83;;;21.40;43.00;;;;;;5010995;28;20543;-56
2022/09/22 12:53:01;;;;;;;2.30;2.00;;;21.50;42.80;;;;;;5024066;28;20538;-56
2022/09/22 12:55:36;;;;;;;3.60;2.10;;;21.60;42.50;;;;;;5021985;28;20439;-57
2022/09/22 12:58:22;;;;;;;1.67;1.57;;;21.60;41.10;;;;;;5024886;28;20469;-60
2022/09/22 13:01:15;;;;;;;3.10;1.60;;;21.60;41.40;;;;;;5031968;28;20422;-61
2022/09/22 13:03:51;;;;;;;1.93;1.47;;;21.70;42.70;;;;;;5024530;28;20831;-60
2022/09/22 13:06:23;;;;;;;1.90;1.73;;;21.80;42.00;;;;;;5023225;28;20426;-60
2022/09/22 13:08:51;;;;;;;2.40;1.63;;;21.90;41.90;;;;;;5028000;28;20495;-57
2022/09/22 13:11:17;;;;;;;5.43;1.50;;;21.90;41.50;;;;;;5026933;28;20518;-58
2022/09/22 13:13:47;;;;;;;4.27;1.57;;;22.00;40.80;;;;;;5013182;28;20885;-59
2022/09/22 13:16:12;;;;;;;3.47;1.73;;;21.90;40.20;;;;;;5022507;28;20172;-58
2022/09/22 13:18:41;;;;;;;3.00;1.70;;;22.00;41.70;;;;;;5027345;28;20481;-58
2022/09/22 13:21:12;;;;;;;4.00;1.50;;;22.10;41.00;;;;;;5026193;28;20250;-55
2022/09/22 13:24:01;;;;;;;2.13;1.80;;;22.20;40.70;;;;;;5019907;28;20488;-58
2022/09/22 13:26:45;;;;;;;1.60;1.50;;;22.30;39.90;;;;;;5023591;28;20427;-58
2022/09/22 13:29:12;;;;;;;5.10;1.80;;;22.40;39.00;;;;;;5026310;28;20484;-58
2022/09/22 13:31:50;;;;;;;1.97;1.40;;;22.40;40.10;;;;;;5023262;28;20466;-57
2022/09/22 13:34:36;;;;;;;5.63;1.53;;;22.50;40.80;;;;;;5022878;28;20430;-58